Forside
METAR-TAF:

METAR-TAF

Lufthavne :

Moab, Utah, USA

Breddekreds: 38-45-36N, længdekreds: 109-44-41W, højde: 1388 m

Aktuelle vejr

Denne rapport blev lavet for 45 minutter siden, kl. 07:53 UTC
Vind stille
Temperatur -2°C
Fugtighed 50%
Tryk 1024 hPa
Sigt: 16.1 km
Nogle få skyer i en højde af 12000 ft

METAR: KCNY 220753Z AUTO 00000KT 10SM FEW120 M02/M11 A3023 RMK AO2 SLP249 T10221106

Tid: 01:38 (08:38 UTC)

Vejrudsigter

Denne rapport blev lavet for 3 timer og 0 minutter siden, kl. 05:38 UTC
Foreløbig gælder fra 22 på 06 UTC til 23 på 06 UTC
Vind 3 kt fra varierende retninger
Sigt: 10 km
Spredte skyer i en højde af 12000 ft
Brudte skyer i en højde af 20000 ft
Fra 22 på 2000 UTC
Vind 5 kt fra nordnordvest
Sigt: 10 km
Brudte skyer i en højde af 10000 ft
byger i nærheden
Fra 23 på 0100 UTC
Vind 5 kt fra nordvest
Sigt: 6.4 km
Spredte skyer i en højde af 1700 ft
Overskyet i en højde af 6000 ft
let regn

TAF: KCNY 220538Z 2206/2306 VRB03KT P6SM SCT120 BKN200 FM222000 33005KT P6SM VCSH BKN100 FM230100 32005KT 4SM -RA SCT017 OVC060

Vejrobservationer og prognoser fra mere end 4000 lufthavne (METAR og TAF).

De gule og røde prikker repræsenterer de meteorologiske stationer.

Flyt musen over at se navnet på stationen.

Så klik over at se vejr observationer og prognoser.

At skifte det kort: Klik på de grønne knapper med et sort kors for at zoome ind; på den grønne knap med en bindestreg for at zoome ud; eller på de grønne pile for tilstødende kort.


METAR-TAF: